sensor_id;sensor_type;location;lat;lon;timestamp;temperature;humidity
38359;DHT22;42072;48.044;14.416;2023-10-08T00:01:05;16.70;99.90
38359;DHT22;42072;48.044;14.416;2023-10-08T00:03:35;16.60;99.90
38359;DHT22;42072;48.044;14.416;2023-10-08T00:06:04;16.60;99.90
38359;DHT22;42072;48.044;14.416;2023-10-08T00:08:39;16.60;99.90
38359;DHT22;42072;48.044;14.416;2023-10-08T00:11:07;16.60;99.90
38359;DHT22;42072;48.044;14.416;2023-10-08T00:13:38;16.60;99.90
38359;DHT22;42072;48.044;14.416;2023-10-08T00:16:09;16.60;99.90
38359;DHT22;42072;48.044;14.416;2023-10-08T00:18:38;16.60;99.90
38359;DHT22;42072;48.044;14.416;2023-10-08T00:21:08;16.50;99.90
38359;DHT22;42072;48.044;14.416;2023-10-08T00:23:38;16.60;99.90
38359;DHT22;42072;48.044;14.416;2023-10-08T00:26:09;16.50;99.90
38359;DHT22;42072;48.044;14.416;2023-10-08T00:28:36;16.60;99.90
38359;DHT22;42072;48.044;14.416;2023-10-08T00:31:04;16.70;99.90
38359;DHT22;42072;48.044;14.416;2023-10-08T00:33:41;16.70;99.90
38359;DHT22;42072;48.044;14.416;2023-10-08T00:36:11;16.90;99.90
38359;DHT22;42072;48.044;14.416;2023-10-08T00:38:48;17.00;99.90
38359;DHT22;42072;48.044;14.416;2023-10-08T00:41:20;17.20;99.90
38359;DHT22;42072;48.044;14.416;2023-10-08T00:43:55;17.20;99.90
38359;DHT22;42072;48.044;14.416;2023-10-08T00:46:27;17.20;99.90
38359;DHT22;42072;48.044;14.416;2023-10-08T00:48:55;17.30;99.90
38359;DHT22;42072;48.044;14.416;2023-10-08T00:51:24;17.40;99.90
38359;DHT22;42072;48.044;14.416;2023-10-08T00:53:58;17.40;99.90
38359;DHT22;42072;48.044;14.416;2023-10-08T00:56:34;17.40;99.90
38359;DHT22;42072;48.044;14.416;2023-10-08T00:59:16;17.40;99.90
38359;DHT22;42072;48.044;14.416;2023-10-08T01:01:48;17.40;99.90
38359;DHT22;42072;48.044;14.416;2023-10-08T01:04:22;17.40;99.90
38359;DHT22;42072;48.044;14.416;2023-10-08T01:06:52;17.30;99.90
38359;DHT22;42072;48.044;14.416;2023-10-08T01:09:26;17.20;99.90
38359;DHT22;42072;48.044;14.416;2023-10-08T01:14:36;17.10;99.90
38359;DHT22;42072;48.044;14.416;2023-10-08T01:17:03;17.20;99.90
38359;DHT22;42072;48.044;14.416;2023-10-08T01:19:33;17.20;99.90
38359;DHT22;42072;48.044;14.416;2023-10-08T01:22:05;17.10;99.90
38359;DHT22;42072;48.044;14.416;2023-10-08T01:24:46;17.10;99.90
38359;DHT22;42072;48.044;14.416;2023-10-08T01:27:17;17.10;99.90
38359;DHT22;42072;48.044;14.416;2023-10-08T01:29:51;17.10;99.90
38359;DHT22;42072;48.044;14.416;2023-10-08T01:32:20;17.10;99.90
38359;DHT22;42072;48.044;14.416;2023-10-08T01:34:49;17.10;99.90
38359;DHT22;42072;48.044;14.416;2023-10-08T01:37:17;17.20;99.90
38359;DHT22;42072;48.044;14.416;2023-10-08T01:39:45;17.30;99.90
38359;DHT22;42072;48.044;14.416;2023-10-08T01:42:13;17.40;99.90
38359;DHT22;42072;48.044;14.416;2023-10-08T01:44:48;17.50;99.90
38359;DHT22;42072;48.044;14.416;2023-10-08T01:47:16;17.50;99.90
38359;DHT22;42072;48.044;14.416;2023-10-08T01:49:44;17.60;99.90
38359;DHT22;42072;48.044;14.416;2023-10-08T01:52:14;17.70;99.90
38359;DHT22;42072;48.044;14.416;2023-10-08T01:54:49;17.80;99.90
38359;DHT22;42072;48.044;14.416;2023-10-08T01:57:16;17.90;99.90
38359;DHT22;42072;48.044;14.416;2023-10-08T01:59:44;18.00;99.90
38359;DHT22;42072;48.044;14.416;2023-10-08T02:02:11;18.00;99.90
38359;DHT22;42072;48.044;14.416;2023-10-08T02:04:44;18.10;99.90
38359;DHT22;42072;48.044;14.416;2023-10-08T02:07:11;18.20;99.90
38359;DHT22;42072;48.044;14.416;2023-10-08T02:09:40;18.30;99.90
38359;DHT22;42072;48.044;14.416;2023-10-08T02:12:08;18.30;99.90
38359;DHT22;42072;48.044;14.416;2023-10-08T02:14:35;18.30;99.90
38359;DHT22;42072;48.044;14.416;2023-10-08T02:17:03;18.30;99.90
38359;DHT22;42072;48.044;14.416;2023-10-08T02:19:33;18.40;99.90
38359;DHT22;42072;48.044;14.416;2023-10-08T02:22:03;18.40;99.90
38359;DHT22;42072;48.044;14.416;2023-10-08T02:24:37;18.40;99.90
38359;DHT22;42072;48.044;14.416;2023-10-08T02:27:06;18.50;99.90
38359;DHT22;42072;48.044;14.416;2023-10-08T02:29:33;18.40;99.90
38359;DHT22;42072;48.044;14.416;2023-10-08T02:32:00;18.50;99.90
38359;DHT22;42072;48.044;14.416;2023-10-08T02:34:28;18.60;99.90
38359;DHT22;42072;48.044;14.416;2023-10-08T02:36:55;18.70;99.90
38359;DHT22;42072;48.044;14.416;2023-10-08T02:39:23;18.80;99.90
38359;DHT22;42072;48.044;14.416;2023-10-08T02:41:53;18.90;99.90
38359;DHT22;42072;48.044;14.416;2023-10-08T02:44:27;18.90;99.90
38359;DHT22;42072;48.044;14.416;2023-10-08T02:46:54;19.00;99.90
38359;DHT22;42072;48.044;14.416;2023-10-08T02:49:22;19.10;99.90
38359;DHT22;42072;48.044;14.416;2023-10-08T02:51:54;19.00;99.90
38359;DHT22;42072;48.044;14.416;2023-10-08T02:54:22;19.10;99.90
38359;DHT22;42072;48.044;14.416;2023-10-08T02:56:58;19.10;99.90
38359;DHT22;42072;48.044;14.416;2023-10-08T02:59:31;19.20;99.90
38359;DHT22;42072;48.044;14.416;2023-10-08T03:02:13;19.20;99.90
38359;DHT22;42072;48.044;14.416;2023-10-08T03:04:51;19.20;99.90
38359;DHT22;42072;48.044;14.416;2023-10-08T03:07:20;19.20;99.90
38359;DHT22;42072;48.044;14.416;2023-10-08T03:10:13;19.30;99.90
38359;DHT22;42072;48.044;14.416;2023-10-08T03:12:46;19.40;99.90
38359;DHT22;42072;48.044;14.416;2023-10-08T03:15:15;19.40;99.90
38359;DHT22;42072;48.044;14.416;2023-10-08T03:18:00;19.50;99.90
38359;DHT22;42072;48.044;14.416;2023-10-08T03:20:37;19.40;99.90
38359;DHT22;42072;48.044;14.416;2023-10-08T03:23:15;19.30;99.90
38359;DHT22;42072;48.044;14.416;2023-10-08T03:26:03;19.30;99.90
38359;DHT22;42072;48.044;14.416;2023-10-08T03:28:38;19.30;99.90
38359;DHT22;42072;48.044;14.416;2023-10-08T03:31:08;19.20;99.90
38359;DHT22;42072;48.044;14.416;2023-10-08T03:33:43;19.20;99.90
38359;DHT22;42072;48.044;14.416;2023-10-08T03:36:16;19.20;99.90
38359;DHT22;42072;48.044;14.416;2023-10-08T03:39:00;19.10;99.90
38359;DHT22;42072;48.044;14.416;2023-10-08T03:41:38;19.20;99.90
38359;DHT22;42072;48.044;14.416;2023-10-08T03:44:09;19.10;99.90
38359;DHT22;42072;48.044;14.416;2023-10-08T03:46:40;19.10;99.90
38359;DHT22;42072;48.044;14.416;2023-10-08T03:49:10;19.10;99.90
38359;DHT22;42072;48.044;14.416;2023-10-08T03:51:44;19.00;99.90
38359;DHT22;42072;48.044;14.416;2023-10-08T03:54:11;18.90;99.90
38359;DHT22;42072;48.044;14.416;2023-10-08T03:56:44;18.90;99.90
38359;DHT22;42072;48.044;14.416;2023-10-08T03:59:18;18.90;99.90
38359;DHT22;42072;48.044;14.416;2023-10-08T04:01:54;18.80;99.90
38359;DHT22;42072;48.044;14.416;2023-10-08T04:04:26;18.80;99.90
38359;DHT22;42072;48.044;14.416;2023-10-08T04:07:20;18.70;99.90
38359;DHT22;42072;48.044;14.416;2023-10-08T04:10:00;18.60;99.90
38359;DHT22;42072;48.044;14.416;2023-10-08T04:12:37;18.50;99.90
38359;DHT22;42072;48.044;14.416;2023-10-08T04:15:12;18.50;99.90
38359;DHT22;42072;48.044;14.416;2023-10-08T04:17:42;18.40;99.90
38359;DHT22;42072;48.044;14.416;2023-10-08T04:20:18;18.30;99.90
38359;DHT22;42072;48.044;14.416;2023-10-08T04:23:05;18.30;99.90
38359;DHT22;42072;48.044;14.416;2023-10-08T04:25:32;18.30;99.90
38359;DHT22;42072;48.044;14.416;2023-10-08T04:28:00;18.20;99.90
38359;DHT22;42072;48.044;14.416;2023-10-08T04:30:34;18.10;99.90
38359;DHT22;42072;48.044;14.416;2023-10-08T04:33:03;18.00;99.90
38359;DHT22;42072;48.044;14.416;2023-10-08T04:35:35;17.90;99.90
38359;DHT22;42072;48.044;14.416;2023-10-08T04:38:16;17.90;99.90
38359;DHT22;42072;48.044;14.416;2023-10-08T04:40:46;17.80;99.90
38359;DHT22;42072;48.044;14.416;2023-10-08T04:43:19;17.70;99.90
38359;DHT22;42072;48.044;14.416;2023-10-08T04:45:56;17.60;99.90
38359;DHT22;42072;48.044;14.416;2023-10-08T04:48:26;17.50;99.90
38359;DHT22;42072;48.044;14.416;2023-10-08T04:51:00;17.40;99.90
38359;DHT22;42072;48.044;14.416;2023-10-08T04:53:31;17.40;99.90
38359;DHT22;42072;48.044;14.416;2023-10-08T04:56:00;17.30;99.90
38359;DHT22;42072;48.044;14.416;2023-10-08T04:58:41;17.20;99.90
38359;DHT22;42072;48.044;14.416;2023-10-08T05:01:08;17.10;99.90
38359;DHT22;42072;48.044;14.416;2023-10-08T05:03:50;17.10;99.90
38359;DHT22;42072;48.044;14.416;2023-10-08T05:06:28;17.10;99.90
38359;DHT22;42072;48.044;14.416;2023-10-08T05:11:39;17.00;99.90
38359;DHT22;42072;48.044;14.416;2023-10-08T05:14:28;17.10;99.90
38359;DHT22;42072;48.044;14.416;2023-10-08T05:17:07;17.10;99.90
38359;DHT22;42072;48.044;14.416;2023-10-08T05:19:40;17.10;99.90
38359;DHT22;42072;48.044;14.416;2023-10-08T05:22:14;17.10;99.90
38359;DHT22;42072;48.044;14.416;2023-10-08T05:24:57;17.20;99.90
38359;DHT22;42072;48.044;14.416;2023-10-08T05:27:37;17.30;99.90
38359;DHT22;42072;48.044;14.416;2023-10-08T05:30:05;17.30;99.90
38359;DHT22;42072;48.044;14.416;2023-10-08T05:32:44;17.30;99.90
38359;DHT22;42072;48.044;14.416;2023-10-08T05:35:30;17.40;99.90
38359;DHT22;42072;48.044;14.416;2023-10-08T05:38:15;17.40;99.90
38359;DHT22;42072;48.044;14.416;2023-10-08T05:41:01;17.40;99.90
38359;DHT22;42072;48.044;14.416;2023-10-08T05:43:38;17.40;99.90
38359;DHT22;42072;48.044;14.416;2023-10-08T05:46:12;17.40;99.90
38359;DHT22;42072;48.044;14.416;2023-10-08T05:48:57;17.40;99.90
38359;DHT22;42072;48.044;14.416;2023-10-08T05:51:43;17.50;99.90
38359;DHT22;42072;48.044;14.416;2023-10-08T05:57:08;17.60;99.90
38359;DHT22;42072;48.044;14.416;2023-10-08T05:59:47;17.50;99.90
38359;DHT22;42072;48.044;14.416;2023-10-08T06:02:42;17.50;99.90
38359;DHT22;42072;48.044;14.416;2023-10-08T06:05:12;17.60;99.90
38359;DHT22;42072;48.044;14.416;2023-10-08T06:07:43;17.70;99.90
38359;DHT22;42072;48.044;14.416;2023-10-08T06:10:25;17.70;99.90
38359;DHT22;42072;48.044;14.416;2023-10-08T06:13:10;17.70;99.90
38359;DHT22;42072;48.044;14.416;2023-10-08T06:15:58;17.70;99.90
38359;DHT22;42072;48.044;14.416;2023-10-08T06:18:29;17.80;99.90
38359;DHT22;42072;48.044;14.416;2023-10-08T06:21:00;17.80;99.90
38359;DHT22;42072;48.044;14.416;2023-10-08T06:23:29;18.00;99.90
38359;DHT22;42072;48.044;14.416;2023-10-08T06:25:59;18.00;99.90
38359;DHT22;42072;48.044;14.416;2023-10-08T06:28:32;18.10;99.90
38359;DHT22;42072;48.044;14.416;2023-10-08T06:31:04;18.20;99.90
38359;DHT22;42072;48.044;14.416;2023-10-08T06:33:40;18.20;99.90
38359;DHT22;42072;48.044;14.416;2023-10-08T06:36:10;18.30;99.90
38359;DHT22;42072;48.044;14.416;2023-10-08T06:38:44;18.50;99.90
38359;DHT22;42072;48.044;14.416;2023-10-08T06:41:16;18.70;99.90
38359;DHT22;42072;48.044;14.416;2023-10-08T06:44:04;18.80;99.90
38359;DHT22;42072;48.044;14.416;2023-10-08T06:46:42;19.00;99.90
38359;DHT22;42072;48.044;14.416;2023-10-08T06:49:09;19.10;99.90
38359;DHT22;42072;48.044;14.416;2023-10-08T06:51:42;19.20;99.90
38359;DHT22;42072;48.044;14.416;2023-10-08T06:54:12;19.20;99.90
38359;DHT22;42072;48.044;14.416;2023-10-08T06:56:45;19.20;99.90
38359;DHT22;42072;48.044;14.416;2023-10-08T06:59:19;19.10;99.90
38359;DHT22;42072;48.044;14.416;2023-10-08T07:01:52;19.10;99.90
38359;DHT22;42072;48.044;14.416;2023-10-08T07:04:19;19.10;99.90
38359;DHT22;42072;48.044;14.416;2023-10-08T07:06:50;19.20;99.90
38359;DHT22;42072;48.044;14.416;2023-10-08T07:09:18;19.30;99.90
38359;DHT22;42072;48.044;14.416;2023-10-08T07:11:58;19.40;99.90
38359;DHT22;42072;48.044;14.416;2023-10-08T07:14:27;19.40;99.90
38359;DHT22;42072;48.044;14.416;2023-10-08T07:16:57;19.50;99.90
38359;DHT22;42072;48.044;14.416;2023-10-08T07:19:30;19.60;99.90
38359;DHT22;42072;48.044;14.416;2023-10-08T07:22:07;19.70;99.90
38359;DHT22;42072;48.044;14.416;2023-10-08T07:24:51;19.80;99.90
38359;DHT22;42072;48.044;14.416;2023-10-08T07:27:20;19.90;99.90
38359;DHT22;42072;48.044;14.416;2023-10-08T07:29:57;20.00;99.90
38359;DHT22;42072;48.044;14.416;2023-10-08T07:32:28;20.00;99.90
38359;DHT22;42072;48.044;14.416;2023-10-08T07:34:58;19.90;99.90
38359;DHT22;42072;48.044;14.416;2023-10-08T07:37:42;19.90;99.90
38359;DHT22;42072;48.044;14.416;2023-10-08T07:40:12;19.90;99.90
38359;DHT22;42072;48.044;14.416;2023-10-08T07:42:40;19.80;99.90
38359;DHT22;42072;48.044;14.416;2023-10-08T07:45:07;19.80;99.90
38359;DHT22;42072;48.044;14.416;2023-10-08T07:47:35;19.70;99.90
38359;DHT22;42072;48.044;14.416;2023-10-08T07:50:03;19.60;99.90
38359;DHT22;42072;48.044;14.416;2023-10-08T07:52:39;19.60;99.90
38359;DHT22;42072;48.044;14.416;2023-10-08T07:55:11;19.60;99.90
38359;DHT22;42072;48.044;14.416;2023-10-08T07:57:45;19.60;99.90
38359;DHT22;42072;48.044;14.416;2023-10-08T08:00:13;19.60;99.90
38359;DHT22;42072;48.044;14.416;2023-10-08T08:02:51;19.70;99.90
38359;DHT22;42072;48.044;14.416;2023-10-08T08:05:19;19.70;99.90
38359;DHT22;42072;48.044;14.416;2023-10-08T08:07:48;19.70;99.90
38359;DHT22;42072;48.044;14.416;2023-10-08T08:10:19;19.70;99.90
38359;DHT22;42072;48.044;14.416;2023-10-08T08:12:50;19.70;99.90
38359;DHT22;42072;48.044;14.416;2023-10-08T08:15:23;19.70;99.90
38359;DHT22;42072;48.044;14.416;2023-10-08T08:17:52;19.60;99.90
38359;DHT22;42072;48.044;14.416;2023-10-08T08:20:19;19.50;99.90
38359;DHT22;42072;48.044;14.416;2023-10-08T08:22:50;19.60;99.90
38359;DHT22;42072;48.044;14.416;2023-10-08T08:25:17;19.50;99.90
38359;DHT22;42072;48.044;14.416;2023-10-08T08:28:01;19.50;99.90
38359;DHT22;42072;48.044;14.416;2023-10-08T08:30:31;19.50;99.90
38359;DHT22;42072;48.044;14.416;2023-10-08T08:33:00;19.60;99.90
38359;DHT22;42072;48.044;14.416;2023-10-08T08:35:38;19.50;99.90
38359;DHT22;42072;48.044;14.416;2023-10-08T08:38:05;19.60;99.90
38359;DHT22;42072;48.044;14.416;2023-10-08T08:40:36;19.60;99.90
38359;DHT22;42072;48.044;14.416;2023-10-08T08:43:05;19.50;99.90
38359;DHT22;42072;48.044;14.416;2023-10-08T08:45:35;19.50;99.90
38359;DHT22;42072;48.044;14.416;2023-10-08T08:48:02;19.50;99.90
38359;DHT22;42072;48.044;14.416;2023-10-08T08:50:32;19.50;99.90
38359;DHT22;42072;48.044;14.416;2023-10-08T08:53:00;19.50;99.90
38359;DHT22;42072;48.044;14.416;2023-10-08T08:55:28;19.40;99.90
38359;DHT22;42072;48.044;14.416;2023-10-08T08:57:57;19.40;99.90
38359;DHT22;42072;48.044;14.416;2023-10-08T09:00:24;19.40;99.90
38359;DHT22;42072;48.044;14.416;2023-10-08T09:02:55;19.30;99.90
38359;DHT22;42072;48.044;14.416;2023-10-08T09:05:23;19.30;99.90
38359;DHT22;42072;48.044;14.416;2023-10-08T09:08:05;19.30;99.90
38359;DHT22;42072;48.044;14.416;2023-10-08T09:10:37;19.30;99.90
38359;DHT22;42072;48.044;14.416;2023-10-08T09:13:22;19.30;99.90
38359;DHT22;42072;48.044;14.416;2023-10-08T09:15:51;19.30;99.90
38359;DHT22;42072;48.044;14.416;2023-10-08T09:18:23;19.40;99.90
38359;DHT22;42072;48.044;14.416;2023-10-08T09:20:51;19.40;99.90
38359;DHT22;42072;48.044;14.416;2023-10-08T09:23:18;19.40;99.90
38359;DHT22;42072;48.044;14.416;2023-10-08T09:25:49;19.40;99.90
38359;DHT22;42072;48.044;14.416;2023-10-08T09:28:18;19.40;99.90
38359;DHT22;42072;48.044;14.416;2023-10-08T09:30:45;19.40;99.90
38359;DHT22;42072;48.044;14.416;2023-10-08T09:33:13;19.40;99.90
38359;DHT22;42072;48.044;14.416;2023-10-08T09:35:42;19.40;99.90
38359;DHT22;42072;48.044;14.416;2023-10-08T09:38:10;19.40;99.90
38359;DHT22;42072;48.044;14.416;2023-10-08T09:40:42;19.40;99.90
38359;DHT22;42072;48.044;14.416;2023-10-08T09:43:11;19.40;99.90
38359;DHT22;42072;48.044;14.416;2023-10-08T09:45:47;19.50;99.90
38359;DHT22;42072;48.044;14.416;2023-10-08T09:48:16;19.40;99.90
38359;DHT22;42072;48.044;14.416;2023-10-08T09:50:47;19.30;99.90
38359;DHT22;42072;48.044;14.416;2023-10-08T09:53:15;19.20;99.90
38359;DHT22;42072;48.044;14.416;2023-10-08T09:58:17;19.20;99.90
38359;DHT22;42072;48.044;14.416;2023-10-08T10:00:45;19.20;99.90
38359;DHT22;42072;48.044;14.416;2023-10-08T10:03:16;19.20;99.90
38359;DHT22;42072;48.044;14.416;2023-10-08T10:05:48;19.20;99.90
38359;DHT22;42072;48.044;14.416;2023-10-08T10:08:18;19.30;99.90
38359;DHT22;42072;48.044;14.416;2023-10-08T10:10:46;19.40;99.90
38359;DHT22;42072;48.044;14.416;2023-10-08T10:13:17;19.50;99.90
38359;DHT22;42072;48.044;14.416;2023-10-08T10:15:47;19.80;99.90
38359;DHT22;42072;48.044;14.416;2023-10-08T10:23:45;20.20;99.90
38359;DHT22;42072;48.044;14.416;2023-10-08T10:26:32;20.20;99.90
38359;DHT22;42072;48.044;14.416;2023-10-08T10:31:39;19.90;99.90
38359;DHT22;42072;48.044;14.416;2023-10-08T10:34:11;19.90;99.90
38359;DHT22;42072;48.044;14.416;2023-10-08T10:36:40;19.90;99.90
38359;DHT22;42072;48.044;14.416;2023-10-08T10:39:10;19.80;99.90
38359;DHT22;42072;48.044;14.416;2023-10-08T10:41:45;19.70;99.90
38359;DHT22;42072;48.044;14.416;2023-10-08T10:44:14;19.60;99.90
38359;DHT22;42072;48.044;14.416;2023-10-08T10:46:45;19.60;99.90
38359;DHT22;42072;48.044;14.416;2023-10-08T10:49:18;19.60;99.90
38359;DHT22;42072;48.044;14.416;2023-10-08T10:51:49;19.70;99.90
38359;DHT22;42072;48.044;14.416;2023-10-08T10:54:20;19.80;99.90
38359;DHT22;42072;48.044;14.416;2023-10-08T10:56:51;19.70;99.90
38359;DHT22;42072;48.044;14.416;2023-10-08T10:59:34;19.60;99.90
38359;DHT22;42072;48.044;14.416;2023-10-08T11:02:08;19.60;99.90
38359;DHT22;42072;48.044;14.416;2023-10-08T11:04:48;19.50;99.90
38359;DHT22;42072;48.044;14.416;2023-10-08T11:07:20;19.40;99.90
38359;DHT22;42072;48.044;14.416;2023-10-08T11:09:48;19.40;99.90
38359;DHT22;42072;48.044;14.416;2023-10-08T11:12:15;19.30;99.90
38359;DHT22;42072;48.044;14.416;2023-10-08T11:14:50;19.30;99.90
38359;DHT22;42072;48.044;14.416;2023-10-08T11:17:24;19.20;99.90
38359;DHT22;42072;48.044;14.416;2023-10-08T11:19:52;19.20;99.90
38359;DHT22;42072;48.044;14.416;2023-10-08T11:22:20;19.20;99.90
38359;DHT22;42072;48.044;14.416;2023-10-08T11:24:50;19.20;99.90
38359;DHT22;42072;48.044;14.416;2023-10-08T11:27:24;19.50;99.90
38359;DHT22;42072;48.044;14.416;2023-10-08T11:30:05;19.50;99.90
38359;DHT22;42072;48.044;14.416;2023-10-08T11:32:38;19.50;99.90
38359;DHT22;42072;48.044;14.416;2023-10-08T11:35:15;19.50;99.90
38359;DHT22;42072;48.044;14.416;2023-10-08T11:37:47;19.50;99.90
38359;DHT22;42072;48.044;14.416;2023-10-08T11:40:26;19.60;99.90
38359;DHT22;42072;48.044;14.416;2023-10-08T11:43:00;19.60;99.90
38359;DHT22;42072;48.044;14.416;2023-10-08T11:45:30;19.70;99.90
38359;DHT22;42072;48.044;14.416;2023-10-08T11:48:06;19.80;99.90
38359;DHT22;42072;48.044;14.416;2023-10-08T11:50:40;19.90;99.90
38359;DHT22;42072;48.044;14.416;2023-10-08T11:53:08;20.10;99.90
38359;DHT22;42072;48.044;14.416;2023-10-08T11:55:36;20.20;99.90
38359;DHT22;42072;48.044;14.416;2023-10-08T11:58:06;20.40;99.90
38359;DHT22;42072;48.044;14.416;2023-10-08T12:00:41;20.60;99.90
38359;DHT22;42072;48.044;14.416;2023-10-08T12:03:15;20.60;99.90
38359;DHT22;42072;48.044;14.416;2023-10-08T12:05:48;20.60;99.90
38359;DHT22;42072;48.044;14.416;2023-10-08T12:08:18;20.30;99.90
38359;DHT22;42072;48.044;14.416;2023-10-08T12:10:48;19.90;99.90
38359;DHT22;42072;48.044;14.416;2023-10-08T12:13:24;19.70;99.90
38359;DHT22;42072;48.044;14.416;2023-10-08T12:15:59;19.60;99.90
38359;DHT22;42072;48.044;14.416;2023-10-08T12:18:45;19.70;99.90
38359;DHT22;42072;48.044;14.416;2023-10-08T12:21:37;19.70;99.90
38359;DHT22;42072;48.044;14.416;2023-10-08T12:24:12;19.80;99.90
38359;DHT22;42072;48.044;14.416;2023-10-08T12:26:47;19.90;99.90
38359;DHT22;42072;48.044;14.416;2023-10-08T12:29:34;20.20;99.90
38359;DHT22;42072;48.044;14.416;2023-10-08T12:32:04;20.40;99.90
38359;DHT22;42072;48.044;14.416;2023-10-08T12:34:40;20.60;99.90
38359;DHT22;42072;48.044;14.416;2023-10-08T12:37:15;20.60;99.90
38359;DHT22;42072;48.044;14.416;2023-10-08T12:39:42;20.60;99.90
38359;DHT22;42072;48.044;14.416;2023-10-08T12:42:27;20.60;99.90
38359;DHT22;42072;48.044;14.416;2023-10-08T12:44:54;20.60;99.90
38359;DHT22;42072;48.044;14.416;2023-10-08T12:47:24;20.50;99.90
38359;DHT22;42072;48.044;14.416;2023-10-08T12:49:56;20.40;99.90
38359;DHT22;42072;48.044;14.416;2023-10-08T12:52:25;20.30;99.90
38359;DHT22;42072;48.044;14.416;2023-10-08T12:54:55;20.30;99.90
38359;DHT22;42072;48.044;14.416;2023-10-08T12:57:25;20.20;99.90
38359;DHT22;42072;48.044;14.416;2023-10-08T13:00:00;20.10;99.90
38359;DHT22;42072;48.044;14.416;2023-10-08T13:02:30;20.10;99.90
38359;DHT22;42072;48.044;14.416;2023-10-08T13:04:59;20.00;99.90
38359;DHT22;42072;48.044;14.416;2023-10-08T13:07:26;19.90;99.90
38359;DHT22;42072;48.044;14.416;2023-10-08T13:09:53;19.90;99.90
38359;DHT22;42072;48.044;14.416;2023-10-08T13:12:21;19.90;99.90
38359;DHT22;42072;48.044;14.416;2023-10-08T13:14:48;19.90;99.90
38359;DHT22;42072;48.044;14.416;2023-10-08T13:17:15;19.70;99.90
38359;DHT22;42072;48.044;14.416;2023-10-08T13:19:42;19.70;99.90
38359;DHT22;42072;48.044;14.416;2023-10-08T13:22:13;19.70;99.90
38359;DHT22;42072;48.044;14.416;2023-10-08T13:24:47;19.60;99.90
38359;DHT22;42072;48.044;14.416;2023-10-08T13:27:15;19.50;99.90
38359;DHT22;42072;48.044;14.416;2023-10-08T13:29:43;19.50;99.90
38359;DHT22;42072;48.044;14.416;2023-10-08T13:32:10;19.40;99.90
38359;DHT22;42072;48.044;14.416;2023-10-08T13:34:44;19.40;99.90
38359;DHT22;42072;48.044;14.416;2023-10-08T13:37:13;19.40;99.90
38359;DHT22;42072;48.044;14.416;2023-10-08T13:39:43;19.30;99.90
38359;DHT22;42072;48.044;14.416;2023-10-08T13:42:10;19.30;99.90
38359;DHT22;42072;48.044;14.416;2023-10-08T13:44:46;19.30;99.90
38359;DHT22;42072;48.044;14.416;2023-10-08T13:47:13;19.30;99.90
38359;DHT22;42072;48.044;14.416;2023-10-08T13:49:42;19.30;99.90
38359;DHT22;42072;48.044;14.416;2023-10-08T13:52:10;19.20;99.90
38359;DHT22;42072;48.044;14.416;2023-10-08T13:54:37;19.20;99.90
38359;DHT22;42072;48.044;14.416;2023-10-08T13:57:09;19.20;99.90
38359;DHT22;42072;48.044;14.416;2023-10-08T13:59:37;19.10;99.90
38359;DHT22;42072;48.044;14.416;2023-10-08T14:02:05;19.00;99.90
38359;DHT22;42072;48.044;14.416;2023-10-08T14:04:42;18.90;99.90
38359;DHT22;42072;48.044;14.416;2023-10-08T14:07:12;18.90;99.90
38359;DHT22;42072;48.044;14.416;2023-10-08T14:09:44;18.80;99.90
38359;DHT22;42072;48.044;14.416;2023-10-08T14:12:14;18.80;99.90
38359;DHT22;42072;48.044;14.416;2023-10-08T14:14:42;18.80;99.90
38359;DHT22;42072;48.044;14.416;2023-10-08T14:17:13;18.90;99.90
38359;DHT22;42072;48.044;14.416;2023-10-08T14:20:04;18.90;99.90
38359;DHT22;42072;48.044;14.416;2023-10-08T14:22:40;18.90;99.90
38359;DHT22;42072;48.044;14.416;2023-10-08T14:25:09;18.90;99.90
38359;DHT22;42072;48.044;14.416;2023-10-08T14:27:39;18.90;99.90
38359;DHT22;42072;48.044;14.416;2023-10-08T14:30:19;18.80;99.90
38359;DHT22;42072;48.044;14.416;2023-10-08T14:32:51;18.80;99.90
38359;DHT22;42072;48.044;14.416;2023-10-08T14:35:18;18.80;99.90
38359;DHT22;42072;48.044;14.416;2023-10-08T14:38:04;18.70;99.90
38359;DHT22;42072;48.044;14.416;2023-10-08T14:40:50;18.30;99.90
38359;DHT22;42072;48.044;14.416;2023-10-08T14:43:36;17.60;99.90
38359;DHT22;42072;48.044;14.416;2023-10-08T14:46:04;17.30;99.90
38359;DHT22;42072;48.044;14.416;2023-10-08T14:48:36;16.80;99.90
38359;DHT22;42072;48.044;14.416;2023-10-08T14:51:04;16.50;99.90
38359;DHT22;42072;48.044;14.416;2023-10-08T14:53:34;16.20;99.90
38359;DHT22;42072;48.044;14.416;2023-10-08T14:56:01;16.10;99.90
38359;DHT22;42072;48.044;14.416;2023-10-08T14:58:32;16.00;99.90
38359;DHT22;42072;48.044;14.416;2023-10-08T15:01:00;15.80;99.90
38359;DHT22;42072;48.044;14.416;2023-10-08T15:03:28;15.80;99.90
38359;DHT22;42072;48.044;14.416;2023-10-08T15:05:56;15.80;99.90
38359;DHT22;42072;48.044;14.416;2023-10-08T15:08:24;15.80;99.90
38359;DHT22;42072;48.044;14.416;2023-10-08T15:10:51;15.60;99.90
38359;DHT22;42072;48.044;14.416;2023-10-08T15:13:20;15.50;99.90
38359;DHT22;42072;48.044;14.416;2023-10-08T15:15:48;15.40;1.00
38359;DHT22;42072;48.044;14.416;2023-10-08T15:18:16;15.40;1.00
38359;DHT22;42072;48.044;14.416;2023-10-08T15:20:45;15.30;1.00
38359;DHT22;42072;48.044;14.416;2023-10-08T15:23:13;15.40;99.90
38359;DHT22;42072;48.044;14.416;2023-10-08T15:25:41;15.30;99.90
38359;DHT22;42072;48.044;14.416;2023-10-08T15:28:09;15.40;1.00
38359;DHT22;42072;48.044;14.416;2023-10-08T15:30:36;15.20;99.90
38359;DHT22;42072;48.044;14.416;2023-10-08T15:33:04;15.10;99.90
38359;DHT22;42072;48.044;14.416;2023-10-08T15:35:34;15.00;99.90
38359;DHT22;42072;48.044;14.416;2023-10-08T15:38:01;14.90;1.00
38359;DHT22;42072;48.044;14.416;2023-10-08T15:40:31;14.80;1.00
38359;DHT22;42072;48.044;14.416;2023-10-08T15:43:00;14.80;1.00
38359;DHT22;42072;48.044;14.416;2023-10-08T15:45:28;14.90;1.00
38359;DHT22;42072;48.044;14.416;2023-10-08T15:47:56;14.90;1.00
38359;DHT22;42072;48.044;14.416;2023-10-08T15:50:25;14.90;1.00
38359;DHT22;42072;48.044;14.416;2023-10-08T15:52:53;14.80;1.00
38359;DHT22;42072;48.044;14.416;2023-10-08T15:55:23;14.70;1.00
38359;DHT22;42072;48.044;14.416;2023-10-08T15:57:55;14.70;1.00
38359;DHT22;42072;48.044;14.416;2023-10-08T16:00:22;14.60;1.00
38359;DHT22;42072;48.044;14.416;2023-10-08T16:02:50;14.60;1.00
38359;DHT22;42072;48.044;14.416;2023-10-08T16:05:17;14.60;1.00
38359;DHT22;42072;48.044;14.416;2023-10-08T16:07:45;14.60;1.00